Astroworld, Texas
Current Conditions -  °F | °C
As of 3:15 AM on Friday 31 Oct 2014 (Local Time) from KMCJ Reporting Station
Broken Clouds Broken Clouds  
Wind Chill: 66°   Ceiling: 12000
Heat Index: 66°   Visibility: 10mi
Dew Point: 52°   Wind: 0mph
Humidity: 60%   Direction: NA
Pressure: 30.07"   Gusts: NA
Location:  29.6867°N, 95.4345°W
Report Text: KMCJ 310815Z AUTO 00000KT 10SM SCT095 BKN120 19/11 A3007 RMK AO1
Loading
Personal Weather Stations






























Interactive Weather Map
Tropical Storm Tracking
New forecast layout! Learn more

10-Day Weather Forecast

Advertisements
Track Severe Weather on mobile